createdAt,value
2023-01-13T00:01:26.831Z,38.10
2023-01-13T00:03:54.147Z,36.72
2023-01-13T00:06:25.732Z,37.80
2023-01-13T00:08:53.890Z,37.40
2023-01-13T00:11:22.380Z,37.42
2023-01-13T00:13:49.659Z,36.58
2023-01-13T00:16:18.878Z,36.90
2023-01-13T00:18:47.194Z,37.38
2023-01-13T00:21:18.256Z,37.40
2023-01-13T00:23:47.083Z,38.05
2023-01-13T00:26:17.978Z,36.70
2023-01-13T00:28:45.473Z,36.00
2023-01-13T00:31:15.986Z,37.67
2023-01-13T00:33:43.561Z,36.85
2023-01-13T00:36:18.446Z,36.13
2023-01-13T00:38:45.967Z,37.58
2023-01-13T00:41:16.826Z,35.63
2023-01-13T00:43:45.531Z,38.03
2023-01-13T00:46:14.950Z,39.47
2023-01-13T00:48:42.649Z,38.60
2023-01-13T00:51:15.390Z,39.45
2023-01-13T00:53:45.421Z,38.55
2023-01-13T00:56:19.983Z,38.25
2023-01-13T00:58:52.181Z,38.30
2023-01-13T01:01:22.791Z,38.03
2023-01-13T01:03:52.285Z,38.45
2023-01-13T01:06:22.360Z,39.13
2023-01-13T01:08:50.022Z,38.20
2023-01-13T01:11:20.935Z,35.75
2023-01-13T01:13:52.019Z,37.17
2023-01-13T01:16:21.564Z,37.30
2023-01-13T01:18:50.412Z,37.05
2023-01-13T01:21:18.491Z,36.53
2023-01-13T01:23:46.371Z,35.58
2023-01-13T01:26:16.820Z,36.55
2023-01-13T01:28:45.248Z,36.65
2023-01-13T01:31:22.375Z,35.80
2023-01-13T01:33:50.563Z,35.45
2023-01-13T01:36:19.860Z,35.55
2023-01-13T01:38:49.343Z,35.85
2023-01-13T01:41:22.586Z,35.75
2023-01-13T01:44:04.212Z,34.15
2023-01-13T01:46:40.658Z,35.47
2023-01-13T01:49:31.603Z,36.78
2023-01-13T01:52:04.356Z,35.63
2023-01-13T01:54:40.580Z,34.85
2023-01-13T01:57:11.598Z,34.33
2023-01-13T01:59:39.611Z,35.70
2023-01-13T02:02:08.513Z,34.40
2023-01-13T02:04:40.387Z,34.97
2023-01-13T02:09:36.623Z,31.83
2023-01-13T02:12:23.369Z,33.75
2023-01-13T02:14:51.270Z,32.40
2023-01-13T02:17:21.925Z,33.58
2023-01-13T02:19:58.505Z,31.92
2023-01-13T02:22:38.908Z,33.38
2023-01-13T02:25:06.199Z,34.70
2023-01-13T02:27:53.954Z,34.00
2023-01-13T02:31:04.972Z,32.25
2023-01-13T02:33:46.579Z,32.42
2023-01-13T02:36:32.889Z,34.30
2023-01-13T02:39:07.458Z,32.58
2023-01-13T02:42:01.564Z,33.80
2023-01-13T02:44:42.089Z,34.13
2023-01-13T02:47:16.381Z,32.53
2023-01-13T02:49:51.033Z,32.78
2023-01-13T02:52:28.951Z,34.30
2023-01-13T02:55:03.059Z,32.88
2023-01-13T02:57:34.228Z,34.55
2023-01-13T03:00:04.721Z,34.07
2023-01-13T03:02:32.703Z,33.42
2023-01-13T03:05:00.764Z,35.53
2023-01-13T03:07:56.934Z,33.92
2023-01-13T03:10:27.029Z,34.03
2023-01-13T03:13:21.762Z,34.88
2023-01-13T03:15:55.803Z,34.67
2023-01-13T03:18:30.373Z,34.75
2023-01-13T03:21:07.178Z,33.88
2023-01-13T03:23:48.927Z,34.83
2023-01-13T03:26:20.287Z,34.00
2023-01-13T03:29:07.150Z,33.03
2023-01-13T03:31:40.398Z,33.83
2023-01-13T03:34:18.091Z,31.85
2023-01-13T03:36:48.562Z,31.83
2023-01-13T03:39:23.893Z,30.40
2023-01-13T03:42:01.491Z,31.92
2023-01-13T03:44:59.034Z,32.47
2023-01-13T03:47:47.381Z,32.17
2023-01-13T03:50:35.658Z,31.20
2023-01-13T03:53:10.198Z,30.23
2023-01-13T03:55:47.189Z,32.28
2023-01-13T03:58:26.492Z,33.25
2023-01-13T04:01:00.172Z,32.15
2023-01-13T04:03:44.411Z,33.17
2023-01-13T04:06:17.776Z,32.25
2023-01-13T04:08:58.509Z,32.83
2023-01-13T04:11:35.222Z,33.97
2023-01-13T04:14:04.973Z,34.17
2023-01-13T04:16:32.605Z,33.30
2023-01-13T04:19:00.502Z,33.72
2023-01-13T04:21:29.433Z,33.53
2023-01-13T04:23:56.851Z,35.92
2023-01-13T04:26:24.442Z,36.67
2023-01-13T04:28:54.604Z,37.13
2023-01-13T04:31:22.984Z,36.45
2023-01-13T04:33:50.377Z,38.35
2023-01-13T04:36:19.622Z,38.22
2023-01-13T04:38:47.072Z,40.55
2023-01-13T04:41:14.784Z,39.60
2023-01-13T04:43:43.064Z,38.40
2023-01-13T04:46:10.445Z,38.25
2023-01-13T04:48:37.886Z,40.35
2023-01-13T04:51:05.346Z,39.65
2023-01-13T04:53:33.085Z,38.03
2023-01-13T04:56:00.418Z,38.67
2023-01-13T04:58:27.679Z,38.38
2023-01-13T05:00:55.580Z,36.50
2023-01-13T05:03:24.388Z,39.17
2023-01-13T05:05:52.511Z,38.67
2023-01-13T05:08:20.267Z,39.38
2023-01-13T05:10:48.109Z,38.83
2023-01-13T05:13:34.060Z,36.72
2023-01-13T05:16:19.963Z,36.90
2023-01-13T05:18:49.466Z,37.33
2023-01-13T05:21:36.039Z,36.03
2023-01-13T05:24:21.782Z,37.08
2023-01-13T05:26:49.139Z,37.17
2023-01-13T05:29:16.379Z,38.58
2023-01-13T05:31:44.100Z,38.85
2023-01-13T05:34:11.478Z,37.67
2023-01-13T05:36:38.831Z,38.53
2023-01-13T05:39:06.086Z,36.20
2023-01-13T05:41:52.330Z,36.35
2023-01-13T05:44:19.640Z,38.40
2023-01-13T05:46:47.044Z,35.83
2023-01-13T05:49:14.416Z,37.15
2023-01-13T05:51:42.663Z,37.35
2023-01-13T05:54:10.498Z,37.13
2023-01-13T05:56:37.757Z,35.97
2023-01-13T05:59:05.073Z,35.33
2023-01-13T06:01:32.792Z,36.22
2023-01-13T06:04:00.196Z,34.92
2023-01-13T06:06:27.569Z,36.40
2023-01-13T06:08:55.610Z,34.80
2023-01-13T06:11:23.342Z,35.95
2023-01-13T06:13:50.761Z,36.25
2023-01-13T06:16:18.567Z,36.92
2023-01-13T06:18:45.998Z,34.55
2023-01-13T06:21:13.451Z,35.10
2023-01-13T06:23:40.813Z,38.65
2023-01-13T06:26:21.464Z,36.85
2023-01-13T06:28:50.072Z,36.53
2023-01-13T06:31:18.492Z,35.67
2023-01-13T06:33:54.674Z,35.35
2023-01-13T06:36:41.650Z,35.92
2023-01-13T06:39:11.677Z,35.75
2023-01-13T06:41:58.691Z,33.08
2023-01-13T06:44:26.548Z,31.98
2023-01-13T06:46:53.953Z,32.85
2023-01-13T06:49:21.824Z,34.03
2023-01-13T06:51:49.787Z,37.88
2023-01-13T06:54:17.085Z,38.42
2023-01-13T06:56:44.405Z,42.20
2023-01-13T06:59:11.806Z,39.15
2023-01-13T07:01:39.732Z,36.38
2023-01-13T07:04:07.564Z,40.60
2023-01-13T07:06:34.913Z,39.78
2023-01-13T07:09:03.055Z,38.22
2023-01-13T07:11:31.417Z,36.25
2023-01-13T07:14:19.540Z,35.38
2023-01-13T07:16:47.793Z,38.40
2023-01-13T07:19:15.891Z,42.08
2023-01-13T07:21:43.837Z,36.78
2023-01-13T07:24:11.749Z,37.50
2023-01-13T07:26:39.473Z,42.92
2023-01-13T07:29:06.960Z,41.45
2023-01-13T07:31:34.764Z,39.15
2023-01-13T07:34:03.184Z,41.40
2023-01-13T07:36:30.474Z,39.10
2023-01-13T07:38:58.016Z,39.45
2023-01-13T07:41:43.913Z,39.20
2023-01-13T07:44:11.287Z,39.17
2023-01-13T07:46:39.491Z,66.00
2023-01-13T07:49:08.959Z,47.15
2023-01-13T07:51:38.585Z,35.33
2023-01-13T07:54:06.094Z,35.15
2023-01-13T07:56:33.762Z,34.30
2023-01-13T07:59:01.571Z,39.78
2023-01-13T08:01:31.796Z,38.92
2023-01-13T08:03:59.183Z,44.72
2023-01-13T08:06:26.855Z,44.30
2023-01-13T08:08:54.244Z,41.92
2023-01-13T08:11:23.510Z,41.80
2023-01-13T08:13:56.292Z,41.33
2023-01-13T08:16:24.189Z,40.08
2023-01-13T08:18:51.587Z,39.95
2023-01-13T08:21:19.082Z,42.00
2023-01-13T08:23:47.397Z,41.38
2023-01-13T08:26:17.416Z,41.60
2023-01-13T08:28:45.402Z,42.28
2023-01-13T08:31:16.152Z,40.35
2023-01-13T08:33:43.901Z,40.78
2023-01-13T08:36:12.397Z,39.88
2023-01-13T08:38:42.382Z,40.50
2023-01-13T08:41:16.085Z,41.58
2023-01-13T08:43:43.473Z,43.75
2023-01-13T08:46:10.904Z,45.13
2023-01-13T08:48:38.329Z,42.42
2023-01-13T08:51:08.736Z,44.03
2023-01-13T08:53:36.232Z,41.33
2023-01-13T08:56:07.691Z,41.97
2023-01-13T08:58:34.947Z,43.47
2023-01-13T09:01:06.586Z,43.03
2023-01-13T09:03:34.537Z,47.90
2023-01-13T09:06:02.173Z,46.63
2023-01-13T09:08:29.923Z,43.65
2023-01-13T09:10:57.729Z,42.08
2023-01-13T09:13:25.397Z,43.63
2023-01-13T09:15:56.314Z,45.75
2023-01-13T09:18:23.948Z,45.13
2023-01-13T09:20:51.361Z,42.70
2023-01-13T09:23:18.678Z,41.83
2023-01-13T09:25:46.181Z,43.30
2023-01-13T09:28:13.996Z,42.42
2023-01-13T09:30:41.357Z,42.70
2023-01-13T09:33:27.891Z,44.50
2023-01-13T09:35:59.130Z,49.20
2023-01-13T09:38:27.618Z,43.95
2023-01-13T09:40:55.722Z,43.67
2023-01-13T09:43:55.844Z,43.55
2023-01-13T09:46:47.176Z,45.85
2023-01-13T09:49:22.056Z,45.45
2023-01-13T09:51:58.673Z,43.47
2023-01-13T09:54:35.078Z,43.03
2023-01-13T09:57:10.053Z,44.03
2023-01-13T09:59:38.698Z,45.00
2023-01-13T10:02:32.750Z,45.45
2023-01-13T10:05:21.731Z,47.38
2023-01-13T10:08:02.794Z,48.08
2023-01-13T10:10:38.714Z,47.37
2023-01-13T10:13:16.329Z,46.42
2023-01-13T10:16:03.846Z,47.75
2023-01-13T10:18:57.904Z,48.80
2023-01-13T10:21:44.439Z,47.58
2023-01-13T10:24:33.780Z,48.63
2023-01-13T10:27:24.515Z,46.88
2023-01-13T10:29:52.291Z,48.35
2023-01-13T10:32:19.673Z,49.92
2023-01-13T10:34:52.297Z,52.33
2023-01-13T10:37:27.684Z,48.88
2023-01-13T10:39:58.094Z,49.65
2023-01-13T10:42:25.882Z,47.92
2023-01-13T10:44:57.070Z,47.55
2023-01-13T10:47:37.585Z,49.88
2023-01-13T10:50:11.437Z,49.33
2023-01-13T10:53:14.154Z,50.22
2023-01-13T10:56:14.441Z,49.40
2023-01-13T10:58:51.887Z,48.50
2023-01-13T11:01:26.088Z,48.22
2023-01-13T11:03:55.666Z,51.65
2023-01-13T11:06:26.588Z,52.30
2023-01-13T11:08:58.096Z,51.22
2023-01-13T11:11:41.362Z,51.50
2023-01-13T11:14:41.606Z,51.95
2023-01-13T11:17:32.019Z,50.80
2023-01-13T11:20:20.429Z,50.55
2023-01-13T11:22:52.900Z,50.65
2023-01-13T11:25:41.358Z,48.88
2023-01-13T11:28:53.535Z,50.67
2023-01-13T11:31:52.245Z,50.75
2023-01-13T11:34:30.411Z,50.13
2023-01-13T11:37:00.905Z,48.05
2023-01-13T11:39:50.007Z,48.13
2023-01-13T11:42:48.574Z,47.30
2023-01-13T11:45:32.496Z,47.80
2023-01-13T11:48:02.443Z,47.47
2023-01-13T11:50:50.647Z,47.13
2023-01-13T11:53:30.408Z,46.70
2023-01-13T11:56:29.290Z,47.13
2023-01-13T11:59:22.226Z,46.95
2023-01-13T12:02:14.526Z,46.40
2023-01-13T12:04:47.981Z,43.88
2023-01-13T12:07:36.613Z,42.67
2023-01-13T12:10:13.550Z,41.30
2023-01-13T12:12:47.548Z,38.92
2023-01-13T12:15:24.209Z,37.78
2023-01-13T12:18:10.777Z,38.28
2023-01-13T12:21:00.078Z,39.60
2023-01-13T12:23:35.699Z,38.78
2023-01-13T12:26:10.344Z,40.45
2023-01-13T12:29:07.646Z,39.50
2023-01-13T12:31:38.553Z,38.55
2023-01-13T12:34:33.664Z,40.17
2023-01-13T12:37:28.862Z,40.35
2023-01-13T12:40:03.879Z,39.65
2023-01-13T12:43:21.703Z,39.20
2023-01-13T12:45:49.170Z,37.95
2023-01-13T12:48:57.105Z,40.15
2023-01-13T12:51:33.462Z,40.15
2023-01-13T12:54:02.692Z,41.70
2023-01-13T12:56:38.848Z,39.58
2023-01-13T12:59:33.763Z,38.17
2023-01-13T13:02:10.990Z,38.50
2023-01-13T13:04:52.685Z,38.83
2023-01-13T13:07:51.329Z,38.35
2023-01-13T13:10:28.805Z,37.83
2023-01-13T13:13:17.813Z,36.28
2023-01-13T13:15:52.462Z,37.17
2023-01-13T13:18:23.878Z,38.47
2023-01-13T13:20:57.460Z,35.35
2023-01-13T13:23:43.568Z,35.65
2023-01-13T13:26:30.896Z,36.72
2023-01-13T13:28:58.663Z,38.53
2023-01-13T13:31:38.002Z,38.13
2023-01-13T13:34:17.251Z,36.83
2023-01-13T13:36:44.544Z,38.30
2023-01-13T13:39:45.165Z,35.65
2023-01-13T13:42:37.445Z,35.33
2023-01-13T13:45:44.988Z,33.90
2023-01-13T13:48:31.308Z,34.22
2023-01-13T13:51:02.885Z,33.88
2023-01-13T13:53:34.605Z,33.05
2023-01-13T13:56:04.719Z,33.45
2023-01-13T13:58:36.881Z,33.65
2023-01-13T14:01:05.307Z,33.65
2023-01-13T14:03:38.367Z,34.83
2023-01-13T14:06:20.794Z,35.70
2023-01-13T14:08:50.435Z,35.20
2023-01-13T14:11:33.277Z,35.08
2023-01-13T14:14:18.179Z,32.20
2023-01-13T14:16:46.695Z,33.05
2023-01-13T14:19:36.702Z,35.63
2023-01-13T14:22:05.168Z,33.65
2023-01-13T14:24:33.112Z,33.78
2023-01-13T14:27:17.704Z,33.40
2023-01-13T14:29:45.687Z,31.83
2023-01-13T14:32:18.453Z,32.75
2023-01-13T14:34:47.352Z,35.15
2023-01-13T14:37:38.510Z,32.17
2023-01-13T14:40:06.902Z,35.22
2023-01-13T14:42:35.597Z,41.88
2023-01-13T14:45:04.240Z,37.15
2023-01-13T14:47:34.078Z,35.03
2023-01-13T14:50:06.874Z,38.20
2023-01-13T14:52:46.903Z,35.65
2023-01-13T14:55:40.273Z,35.50
2023-01-13T14:58:25.154Z,33.40
2023-01-13T15:01:36.477Z,33.72
2023-01-13T15:04:38.129Z,32.83
2023-01-13T15:07:13.324Z,32.87
2023-01-13T15:09:42.697Z,37.95
2023-01-13T15:12:23.573Z,69.20
2023-01-13T15:14:53.220Z,40.95
2023-01-13T15:17:20.613Z,111.80
2023-01-13T15:19:47.917Z,56.80
2023-01-13T15:22:15.179Z,37.80
2023-01-13T15:24:42.458Z,37.90
2023-01-13T15:27:19.797Z,37.60
2023-01-13T15:29:47.217Z,39.58
2023-01-13T15:32:19.349Z,38.30
2023-01-13T15:34:47.820Z,37.17
2023-01-13T15:37:16.863Z,36.00
2023-01-13T15:39:44.785Z,38.15
2023-01-13T15:42:31.688Z,36.83
2023-01-13T15:45:17.732Z,36.15
2023-01-13T15:47:45.741Z,34.88
2023-01-13T15:50:15.255Z,34.28
2023-01-13T15:52:42.765Z,34.22
2023-01-13T15:55:10.867Z,34.50
2023-01-13T15:57:42.366Z,37.30
2023-01-13T16:00:20.185Z,36.05
2023-01-13T16:02:51.722Z,34.80
2023-01-13T16:05:19.138Z,36.95
2023-01-13T16:07:46.831Z,40.80
2023-01-13T16:10:21.087Z,40.47
2023-01-13T16:12:48.664Z,41.83
2023-01-13T16:15:17.168Z,36.85
2023-01-13T16:17:46.612Z,39.00
2023-01-13T16:20:16.449Z,44.22
2023-01-13T16:22:45.398Z,50.15
2023-01-13T16:25:17.602Z,50.55
2023-01-13T16:27:45.906Z,44.03
2023-01-13T16:30:26.542Z,45.83
2023-01-13T16:32:55.401Z,44.45
2023-01-13T16:35:23.559Z,41.90
2023-01-13T16:37:52.125Z,43.90
2023-01-13T16:40:27.004Z,43.20
2023-01-13T16:42:54.447Z,42.33
2023-01-13T16:45:21.875Z,47.25
2023-01-13T16:47:49.528Z,47.20
2023-01-13T16:50:44.003Z,46.63
2023-01-13T16:53:11.959Z,46.95
2023-01-13T16:55:41.614Z,44.45
2023-01-13T16:58:18.125Z,43.03
2023-01-13T17:00:49.465Z,46.00
2023-01-13T17:03:16.941Z,45.33
2023-01-13T17:05:46.931Z,45.28
2023-01-13T17:08:17.767Z,46.03
2023-01-13T17:10:46.317Z,46.83
2023-01-13T17:13:16.995Z,44.63
2023-01-13T17:15:46.049Z,42.80
2023-01-13T17:18:13.921Z,48.45
2023-01-13T17:20:41.820Z,46.65
2023-01-13T17:23:09.759Z,43.50
2023-01-13T17:25:36.997Z,48.38
2023-01-13T17:28:04.600Z,45.78
2023-01-13T17:30:31.907Z,46.75
2023-01-13T17:32:59.678Z,46.72
2023-01-13T17:35:27.553Z,45.13
2023-01-13T17:37:54.861Z,44.95
2023-01-13T17:40:22.308Z,49.10
2023-01-13T17:42:49.738Z,54.92
2023-01-13T17:45:17.035Z,55.80
2023-01-13T17:47:47.288Z,55.88
2023-01-13T17:50:16.735Z,53.00
2023-01-13T17:52:44.195Z,52.30
2023-01-13T17:55:12.057Z,49.25
2023-01-13T17:57:39.448Z,54.15
2023-01-13T18:00:07.587Z,53.33
2023-01-13T18:02:39.497Z,55.15
2023-01-13T18:05:07.065Z,58.35
2023-01-13T18:07:34.924Z,59.20
2023-01-13T18:10:02.467Z,61.22
2023-01-13T18:12:29.806Z,57.70
2023-01-13T18:14:57.478Z,81.05
2023-01-13T18:17:24.730Z,74.78
2023-01-13T18:20:10.620Z,70.38
2023-01-13T18:22:56.500Z,61.40
2023-01-13T18:25:42.809Z,61.35
2023-01-13T18:28:10.251Z,52.75
2023-01-13T18:30:38.146Z,51.15
2023-01-13T18:33:05.489Z,55.45
2023-01-13T18:35:32.831Z,55.15
2023-01-13T18:38:00.230Z,55.08
2023-01-13T18:40:27.720Z,57.80
2023-01-13T18:42:55.474Z,58.05
2023-01-13T18:45:31.426Z,53.35
2023-01-13T18:48:02.674Z,57.35
2023-01-13T18:50:31.638Z,56.58
2023-01-13T18:52:59.441Z,56.33
2023-01-13T18:55:28.558Z,61.55
2023-01-13T18:57:56.705Z,69.22
2023-01-13T19:00:26.754Z,62.50
2023-01-13T19:05:34.992Z,58.35
2023-01-13T19:08:02.933Z,56.20
2023-01-13T19:10:32.234Z,57.85
2023-01-13T19:13:01.233Z,63.13
2023-01-13T19:15:30.578Z,80.72
2023-01-13T19:17:57.956Z,75.95
2023-01-13T19:20:25.230Z,74.40
2023-01-13T19:22:54.373Z,73.15
2023-01-13T19:25:22.039Z,65.40
2023-01-13T19:27:49.432Z,56.65
2023-01-13T19:30:17.457Z,53.55
2023-01-13T19:32:44.844Z,54.80
2023-01-13T19:35:13.153Z,55.28
2023-01-13T19:37:40.785Z,57.08
2023-01-13T19:40:09.873Z,58.97
2023-01-13T19:42:55.977Z,64.50
2023-01-13T19:45:26.383Z,57.70
2023-01-13T19:47:54.706Z,53.47
2023-01-13T19:50:23.427Z,55.08
2023-01-13T19:52:50.775Z,56.15
2023-01-13T19:55:19.723Z,55.97
2023-01-13T19:57:47.426Z,64.68
2023-01-13T20:00:20.280Z,69.93
2023-01-13T20:02:49.593Z,64.03
2023-01-13T20:05:21.332Z,71.68
2023-01-13T20:07:51.288Z,72.20
2023-01-13T20:10:20.647Z,77.72
2023-01-13T20:12:48.158Z,68.85
2023-01-13T20:15:15.696Z,64.20
2023-01-13T20:17:43.187Z,62.22
2023-01-13T20:20:11.939Z,73.68
2023-01-13T20:22:39.935Z,62.08
2023-01-13T20:25:09.298Z,61.42
2023-01-13T20:27:37.608Z,68.32
2023-01-13T20:30:06.360Z,70.25
2023-01-13T20:32:33.752Z,75.30
2023-01-13T20:35:01.110Z,73.28
2023-01-13T20:37:28.465Z,68.57
2023-01-13T20:39:58.015Z,68.78
2023-01-13T20:42:44.552Z,73.78
2023-01-13T20:45:19.848Z,69.20
2023-01-13T20:47:47.784Z,72.47
2023-01-13T20:50:16.330Z,70.00
2023-01-13T20:52:44.558Z,70.00
2023-01-13T20:55:13.460Z,72.50
2023-01-13T20:57:41.752Z,71.43
2023-01-13T21:00:10.380Z,73.60
2023-01-13T21:02:39.883Z,70.13
2023-01-13T21:05:08.668Z,71.53
2023-01-13T21:07:36.080Z,71.75
2023-01-13T21:10:04.059Z,70.40
2023-01-13T21:12:50.454Z,68.30
2023-01-13T21:15:17.880Z,71.68
2023-01-13T21:18:06.616Z,68.20
2023-01-13T21:20:36.202Z,68.80
2023-01-13T21:23:04.158Z,72.05
2023-01-13T21:25:35.146Z,73.40
2023-01-13T21:28:08.181Z,71.68
2023-01-13T21:30:37.594Z,67.25
2023-01-13T21:33:06.152Z,65.55
2023-01-13T21:35:34.307Z,70.82
2023-01-13T21:38:01.840Z,64.22
2023-01-13T21:40:29.405Z,50.17
2023-01-13T21:43:15.774Z,53.78
2023-01-13T21:46:04.221Z,52.80
2023-01-13T21:48:33.121Z,49.15
2023-01-13T21:51:01.342Z,48.85
2023-01-13T21:53:29.087Z,52.47
2023-01-13T21:55:56.424Z,52.35
2023-01-13T21:58:23.885Z,66.53
2023-01-13T22:00:51.266Z,73.70
2023-01-13T22:03:18.824Z,75.85
2023-01-13T22:05:47.172Z,71.35
2023-01-13T22:08:14.494Z,74.25
2023-01-13T22:10:57.612Z,68.65
2023-01-13T22:13:47.779Z,74.85
2023-01-13T22:16:15.605Z,71.63
2023-01-13T22:18:43.487Z,71.15
2023-01-13T22:21:11.183Z,69.57
2023-01-13T22:23:39.062Z,69.82
2023-01-13T22:26:07.709Z,88.30
2023-01-13T22:28:43.232Z,136.38
2023-01-13T22:31:13.181Z,93.38
2023-01-13T22:33:41.969Z,85.70
2023-01-13T22:36:10.243Z,75.07
2023-01-13T22:38:38.532Z,80.03
2023-01-13T22:41:07.911Z,79.10
2023-01-13T22:43:36.512Z,78.68
2023-01-13T22:46:06.835Z,77.20
2023-01-13T22:48:34.916Z,68.30
2023-01-13T22:51:11.424Z,59.78
2023-01-13T22:53:39.475Z,55.58
2023-01-13T22:56:07.862Z,54.67
2023-01-13T22:58:35.218Z,51.95
2023-01-13T23:01:12.077Z,53.60
2023-01-13T23:03:40.171Z,52.72
2023-01-13T23:06:08.502Z,52.20
2023-01-13T23:08:36.260Z,51.17
2023-01-13T23:11:06.361Z,51.10
2023-01-13T23:13:34.725Z,47.67
2023-01-13T23:16:09.014Z,48.85
2023-01-13T23:18:37.668Z,44.85
2023-01-13T23:21:06.156Z,45.72
2023-01-13T23:23:35.031Z,47.20
2023-01-13T23:26:03.625Z,50.30
2023-01-13T23:28:31.264Z,47.47
2023-01-13T23:30:59.030Z,45.85
2023-01-13T23:33:26.890Z,46.53
2023-01-13T23:35:59.260Z,46.47
2023-01-13T23:38:27.703Z,47.75
2023-01-13T23:40:55.750Z,48.22
2023-01-13T23:43:23.639Z,46.35
2023-01-13T23:45:51.499Z,46.55
2023-01-13T23:48:19.823Z,46.70
2023-01-13T23:50:57.790Z,55.30
2023-01-13T23:53:31.048Z,55.38
2023-01-13T23:55:59.278Z,52.22
2023-01-13T23:58:28.189Z,55.13
